createdAt,value
2022-11-25T00:00:18.111Z,3.50
2022-11-25T00:03:06.911Z,3.50
2022-11-25T00:05:53.981Z,3.50
2022-11-25T00:08:42.160Z,3.60
2022-11-25T00:11:30.385Z,3.50
2022-11-25T00:14:17.506Z,3.60
2022-11-25T00:17:04.875Z,3.60
2022-11-25T00:19:53.718Z,3.60
2022-11-25T00:22:40.890Z,3.70
2022-11-25T00:25:28.143Z,3.70
2022-11-25T00:28:15.504Z,3.70
2022-11-25T00:31:06.851Z,3.70
2022-11-25T00:33:55.066Z,3.70
2022-11-25T00:36:44.019Z,3.70
2022-11-25T00:39:31.320Z,3.80
2022-11-25T00:42:37.254Z,3.70
2022-11-25T00:45:24.486Z,3.70
2022-11-25T00:48:12.005Z,3.70
2022-11-25T00:50:59.307Z,3.70
2022-11-25T00:53:47.908Z,3.70
2022-11-25T00:56:34.980Z,3.70
2022-11-25T00:59:22.432Z,3.70
2022-11-25T01:02:11.510Z,3.70
2022-11-25T01:04:58.606Z,3.70
2022-11-25T01:07:46.470Z,3.70
2022-11-25T01:10:35.514Z,3.70
2022-11-25T01:13:22.584Z,3.70
2022-11-25T01:16:13.798Z,3.70
2022-11-25T01:19:02.213Z,3.80
2022-11-25T01:21:49.593Z,3.80
2022-11-25T01:24:37.362Z,3.80
2022-11-25T01:27:26.107Z,3.80
2022-11-25T01:30:14.587Z,3.80
2022-11-25T01:33:01.713Z,3.80
2022-11-25T01:35:49.108Z,3.80
2022-11-25T01:38:37.040Z,3.80
2022-11-25T01:41:26.732Z,3.70
2022-11-25T01:44:17.145Z,3.70
2022-11-25T01:47:15.959Z,3.70
2022-11-25T01:50:06.007Z,3.70
2022-11-25T01:52:56.378Z,3.80
2022-11-25T01:55:47.738Z,3.80
2022-11-25T01:58:38.177Z,3.80
2022-11-25T02:01:27.368Z,3.80
2022-11-25T02:04:18.492Z,3.90
2022-11-25T02:07:14.778Z,3.90
2022-11-25T02:10:06.647Z,3.90
2022-11-25T02:12:54.889Z,3.90
2022-11-25T02:15:42.303Z,3.80
2022-11-25T02:18:31.622Z,3.80
2022-11-25T02:21:21.812Z,3.80
2022-11-25T02:24:17.453Z,3.80
2022-11-25T02:27:07.168Z,3.80
2022-11-25T02:29:55.019Z,3.80
2022-11-25T02:32:45.064Z,3.70
2022-11-25T02:35:34.174Z,3.70
2022-11-25T02:38:25.093Z,3.70
2022-11-25T02:41:15.524Z,3.80
2022-11-25T02:44:08.577Z,3.80
2022-11-25T02:46:55.722Z,3.80
2022-11-25T02:49:42.968Z,3.80
2022-11-25T02:52:30.300Z,3.70
2022-11-25T02:55:17.861Z,3.80
2022-11-25T02:58:06.170Z,3.80
2022-11-25T03:00:54.656Z,3.80
2022-11-25T03:03:41.933Z,3.80
2022-11-25T03:06:30.173Z,3.80
2022-11-25T03:09:17.421Z,3.80
2022-11-25T03:12:20.151Z,3.80
2022-11-25T03:15:08.439Z,3.80
2022-11-25T03:17:57.456Z,3.80
2022-11-25T03:20:44.799Z,3.70
2022-11-25T03:23:32.117Z,3.70
2022-11-25T03:26:19.539Z,3.70
2022-11-25T03:29:07.570Z,3.80
2022-11-25T03:31:55.611Z,3.80
2022-11-25T03:34:44.158Z,3.80
2022-11-25T03:37:31.361Z,3.80
2022-11-25T03:40:19.049Z,3.90
2022-11-25T03:43:06.626Z,3.80
2022-11-25T03:45:53.988Z,3.80
2022-11-25T03:48:41.475Z,3.80
2022-11-25T03:51:30.477Z,3.80
2022-11-25T03:54:19.542Z,3.70
2022-11-25T03:57:29.554Z,3.80
2022-11-25T04:00:17.048Z,3.80
2022-11-25T04:03:20.497Z,3.80
2022-11-25T04:06:08.105Z,3.80
2022-11-25T04:08:56.913Z,3.80
2022-11-25T04:12:03.725Z,3.70
2022-11-25T04:15:02.069Z,3.70
2022-11-25T04:17:50.475Z,3.80
2022-11-25T04:20:37.794Z,3.70
2022-11-25T04:23:28.150Z,3.70
2022-11-25T04:26:21.887Z,3.70
2022-11-25T04:29:09.543Z,3.80
2022-11-25T04:31:57.030Z,3.70
2022-11-25T04:34:45.213Z,3.70
2022-11-25T04:37:32.975Z,3.80
2022-11-25T04:40:20.507Z,3.50
2022-11-25T04:43:16.031Z,3.90
2022-11-25T04:46:14.560Z,3.90
2022-11-25T04:49:05.736Z,3.90
2022-11-25T04:51:53.685Z,3.90
2022-11-25T04:54:42.007Z,3.90
2022-11-25T04:57:29.546Z,3.90
2022-11-25T05:00:19.853Z,3.90
2022-11-25T05:03:08.255Z,3.90
2022-11-25T05:05:57.272Z,3.90
2022-11-25T05:08:45.129Z,4.00
2022-11-25T05:11:33.006Z,4.00
2022-11-25T05:14:20.547Z,4.10
2022-11-25T05:17:13.751Z,4.00
2022-11-25T05:20:01.111Z,4.10
2022-11-25T05:22:50.264Z,4.10
2022-11-25T05:25:41.199Z,4.10
2022-11-25T05:28:49.200Z,4.00
2022-11-25T05:31:36.621Z,4.10
2022-11-25T05:34:26.499Z,4.10
2022-11-25T05:37:21.150Z,4.10
2022-11-25T05:40:16.593Z,4.10
2022-11-25T05:43:24.441Z,4.10
2022-11-25T05:46:14.412Z,4.20
2022-11-25T05:49:10.578Z,4.10
2022-11-25T05:52:03.197Z,4.10
2022-11-25T05:54:57.439Z,4.20
2022-11-25T05:57:45.128Z,4.30
2022-11-25T06:00:32.902Z,4.20
2022-11-25T06:03:25.404Z,4.20
2022-11-25T06:06:13.430Z,4.20
2022-11-25T06:09:03.437Z,4.20
2022-11-25T06:11:51.128Z,4.30
2022-11-25T06:14:38.966Z,4.20
2022-11-25T06:17:28.475Z,4.30
2022-11-25T06:20:34.881Z,4.30
2022-11-25T06:23:23.091Z,4.30
2022-11-25T06:26:15.274Z,4.30
2022-11-25T06:29:02.974Z,4.30
2022-11-25T06:31:52.106Z,4.30
2022-11-25T06:34:57.117Z,4.30
2022-11-25T06:38:00.368Z,4.20
2022-11-25T06:40:47.582Z,4.10
2022-11-25T06:43:38.111Z,3.90
2022-11-25T06:46:26.240Z,3.90
2022-11-25T06:49:13.597Z,3.80
2022-11-25T06:52:01.000Z,3.60
2022-11-25T06:54:49.886Z,3.60
2022-11-25T06:57:37.243Z,3.50
2022-11-25T07:00:26.206Z,3.30
2022-11-25T07:03:13.753Z,3.40
2022-11-25T07:06:01.105Z,3.40
2022-11-25T07:08:48.997Z,3.20
2022-11-25T07:11:37.911Z,3.20
2022-11-25T07:14:25.194Z,3.10
2022-11-25T07:17:13.859Z,3.10
2022-11-25T07:20:00.995Z,3.10
2022-11-25T07:22:48.319Z,3.10
2022-11-25T07:25:35.881Z,3.20
2022-11-25T07:28:23.296Z,3.20
2022-11-25T07:31:24.347Z,3.00
2022-11-25T07:34:17.517Z,3.10
2022-11-25T07:37:04.904Z,3.00
2022-11-25T07:39:52.500Z,3.10
2022-11-25T07:42:39.849Z,3.20
2022-11-25T07:45:29.128Z,3.20
2022-11-25T07:48:27.021Z,3.20
2022-11-25T07:51:21.136Z,3.40
2022-11-25T07:54:10.491Z,3.40
2022-11-25T07:56:57.958Z,3.60
2022-11-25T07:59:45.134Z,3.70
2022-11-25T08:02:32.555Z,3.70
2022-11-25T08:05:19.917Z,3.80
2022-11-25T08:08:08.802Z,3.80
2022-11-25T08:10:56.046Z,3.90
2022-11-25T08:13:44.098Z,3.90
2022-11-25T08:16:32.460Z,4.00
2022-11-25T08:19:19.648Z,4.00
2022-11-25T08:22:07.471Z,4.10
2022-11-25T08:24:56.302Z,4.10
2022-11-25T08:27:43.412Z,4.20
2022-11-25T08:30:30.939Z,4.20
2022-11-25T08:33:18.395Z,4.20
2022-11-25T08:36:06.178Z,4.30
2022-11-25T08:38:57.492Z,4.20
2022-11-25T08:41:46.326Z,4.30
2022-11-25T08:44:33.455Z,4.30
2022-11-25T08:47:21.157Z,4.30
2022-11-25T08:50:11.302Z,4.30
2022-11-25T08:52:59.669Z,4.30
2022-11-25T08:55:47.097Z,4.30
2022-11-25T08:58:36.768Z,4.30
2022-11-25T09:01:25.819Z,4.20
2022-11-25T09:04:13.152Z,4.20
2022-11-25T09:07:00.521Z,4.20
2022-11-25T09:09:48.002Z,4.20
2022-11-25T09:12:35.704Z,4.20
2022-11-25T09:15:24.221Z,4.30
2022-11-25T09:18:11.838Z,4.40
2022-11-25T09:21:00.126Z,4.40
2022-11-25T09:23:47.379Z,4.60
2022-11-25T09:26:35.723Z,4.50
2022-11-25T09:29:22.839Z,4.70
2022-11-25T09:32:11.642Z,4.70
2022-11-25T09:34:59.005Z,4.60
2022-11-25T09:37:46.427Z,4.70
2022-11-25T09:40:39.985Z,4.70
2022-11-25T09:43:56.512Z,4.80
2022-11-25T09:46:56.546Z,4.80
2022-11-25T09:49:58.906Z,4.80
2022-11-25T09:52:57.460Z,4.90
2022-11-25T09:55:48.352Z,4.90
2022-11-25T09:58:38.429Z,5.10
2022-11-25T10:01:29.462Z,5.10
2022-11-25T10:04:22.700Z,5.10
2022-11-25T10:07:19.633Z,5.10
2022-11-25T10:10:15.130Z,5.10
2022-11-25T10:13:02.292Z,5.10
2022-11-25T10:15:51.529Z,5.20
2022-11-25T10:18:43.225Z,5.30
2022-11-25T10:21:30.660Z,5.40
2022-11-25T10:24:21.408Z,5.40
2022-11-25T10:27:16.487Z,5.50
2022-11-25T10:30:13.106Z,5.60
2022-11-25T10:33:06.064Z,5.70
2022-11-25T10:35:58.031Z,5.70
2022-11-25T10:39:00.206Z,5.70
2022-11-25T10:41:54.057Z,5.70
2022-11-25T10:44:42.771Z,5.80
2022-11-25T10:47:37.015Z,5.90
2022-11-25T10:50:32.306Z,6.00
2022-11-25T10:53:24.361Z,6.00
2022-11-25T10:56:17.897Z,6.00
2022-11-25T10:59:15.390Z,5.90
2022-11-25T11:02:20.271Z,5.90
2022-11-25T11:05:20.602Z,6.00
2022-11-25T11:08:18.903Z,6.10
2022-11-25T11:11:22.558Z,6.10
2022-11-25T11:14:19.918Z,6.10
2022-11-25T11:17:07.056Z,6.20
2022-11-25T11:20:16.739Z,6.10
2022-11-25T11:23:09.901Z,6.20
2022-11-25T11:26:02.521Z,6.30
2022-11-25T11:28:57.779Z,6.20
2022-11-25T11:31:50.041Z,6.30
2022-11-25T11:34:52.917Z,6.30
2022-11-25T11:37:43.724Z,6.20
2022-11-25T11:40:39.030Z,6.30
2022-11-25T11:43:50.052Z,6.30
2022-11-25T11:46:57.096Z,6.20
2022-11-25T11:49:59.630Z,6.20
2022-11-25T11:52:55.978Z,6.20
2022-11-25T11:56:32.950Z,6.20
2022-11-25T11:59:31.042Z,6.20
2022-11-25T12:02:28.808Z,6.10
2022-11-25T12:05:21.947Z,6.10
2022-11-25T12:08:14.413Z,6.10
2022-11-25T12:11:05.560Z,6.20
2022-11-25T12:14:01.138Z,6.30
2022-11-25T12:16:54.069Z,6.30
2022-11-25T12:19:51.208Z,6.40
2022-11-25T12:22:43.508Z,6.40
2022-11-25T12:25:35.278Z,6.50
2022-11-25T12:28:29.387Z,6.50
2022-11-25T12:31:21.030Z,6.50
2022-11-25T12:34:13.441Z,6.50
2022-11-25T12:37:14.799Z,6.50
2022-11-25T12:40:08.513Z,6.60
2022-11-25T12:43:04.194Z,6.60
2022-11-25T12:46:00.113Z,6.60
2022-11-25T12:48:47.442Z,6.60
2022-11-25T12:51:52.978Z,6.70
2022-11-25T12:55:10.046Z,6.60
2022-11-25T12:58:19.643Z,6.70
2022-11-25T13:01:36.618Z,6.70
2022-11-25T13:05:18.411Z,6.70
2022-11-25T13:08:20.039Z,6.60
2022-11-25T13:11:34.788Z,6.50
2022-11-25T13:14:29.744Z,6.50
2022-11-25T13:17:18.981Z,6.40
2022-11-25T13:20:49.116Z,6.50
2022-11-25T13:23:49.706Z,6.40
2022-11-25T13:26:50.368Z,6.30
2022-11-25T13:30:02.258Z,6.30
2022-11-25T13:32:51.574Z,6.30
2022-11-25T13:35:49.312Z,6.30
2022-11-25T13:38:39.703Z,6.30
2022-11-25T13:41:37.506Z,6.30
2022-11-25T13:44:34.807Z,6.30
2022-11-25T13:47:34.088Z,6.30
2022-11-25T13:50:36.828Z,6.30
2022-11-25T13:53:35.253Z,6.30
2022-11-25T13:56:29.008Z,6.40
2022-11-25T13:59:39.719Z,6.40
2022-11-25T14:02:36.893Z,6.40
2022-11-25T14:05:48.609Z,6.30
2022-11-25T14:08:43.334Z,6.30
2022-11-25T14:11:41.231Z,6.40
2022-11-25T14:14:50.118Z,6.40
2022-11-25T14:18:17.736Z,6.40
2022-11-25T14:21:14.139Z,6.40
2022-11-25T14:24:12.317Z,6.30
2022-11-25T14:27:00.894Z,6.30
2022-11-25T14:29:53.580Z,6.30
2022-11-25T14:32:45.800Z,6.30
2022-11-25T14:35:43.696Z,6.30
2022-11-25T14:38:41.539Z,6.30
2022-11-25T14:41:33.686Z,6.30
2022-11-25T14:44:26.292Z,6.20
2022-11-25T14:47:14.732Z,6.30
2022-11-25T14:53:11.115Z,6.30
2022-11-25T14:56:00.718Z,6.30
2022-11-25T14:58:49.713Z,6.30
2022-11-25T15:01:38.718Z,6.20
2022-11-25T15:04:27.339Z,6.20
2022-11-25T15:07:20.440Z,6.30
2022-11-25T15:10:29.297Z,6.30
2022-11-25T15:13:28.186Z,6.30
2022-11-25T15:16:17.657Z,6.20
2022-11-25T15:19:06.597Z,6.20
2022-11-25T15:22:23.141Z,6.20
2022-11-25T15:25:15.173Z,6.20
2022-11-25T15:28:02.568Z,6.20
2022-11-25T15:31:00.842Z,6.20
2022-11-25T15:33:48.932Z,6.20
2022-11-25T15:36:36.163Z,6.30
2022-11-25T15:39:30.533Z,6.20
2022-11-25T15:42:20.953Z,6.20
2022-11-25T15:45:12.124Z,6.20
2022-11-25T15:47:59.345Z,6.30
2022-11-25T15:50:46.724Z,6.20
2022-11-25T15:53:37.590Z,6.20
2022-11-25T15:56:28.161Z,6.20
2022-11-25T15:59:46.983Z,6.20
2022-11-25T16:02:40.464Z,6.20
2022-11-25T16:05:32.989Z,6.10
2022-11-25T16:08:36.381Z,6.10
2022-11-25T16:11:25.590Z,6.10
2022-11-25T16:14:26.332Z,6.10
2022-11-25T16:17:14.732Z,6.10
2022-11-25T16:20:03.422Z,6.10
2022-11-25T16:22:50.745Z,6.10
2022-11-25T16:25:39.489Z,6.10
2022-11-25T16:28:27.151Z,6.10
2022-11-25T16:31:18.436Z,6.20
2022-11-25T16:34:15.238Z,6.20
2022-11-25T16:37:02.408Z,6.20
2022-11-25T16:39:49.877Z,6.20
2022-11-25T16:42:37.284Z,6.20
2022-11-25T16:45:27.189Z,6.20
2022-11-25T16:48:19.080Z,6.20
2022-11-25T16:51:09.890Z,6.20
2022-11-25T16:53:57.344Z,6.20
2022-11-25T16:56:46.680Z,6.20
2022-11-25T16:59:38.511Z,6.10
2022-11-25T17:02:25.878Z,6.10
2022-11-25T17:05:18.732Z,6.10
2022-11-25T17:08:06.307Z,6.10
2022-11-25T17:10:58.169Z,6.20
2022-11-25T17:13:50.255Z,6.20
2022-11-25T17:16:37.940Z,6.20
2022-11-25T17:19:25.470Z,6.20
2022-11-25T17:22:18.521Z,6.30
2022-11-25T17:25:06.145Z,6.30
2022-11-25T17:27:53.733Z,6.30
2022-11-25T17:30:41.366Z,6.30
2022-11-25T17:33:28.693Z,6.30
2022-11-25T17:36:16.097Z,6.30
2022-11-25T17:39:05.033Z,6.30
2022-11-25T17:41:53.100Z,6.30
2022-11-25T17:44:42.200Z,6.30
2022-11-25T17:47:29.304Z,6.40
2022-11-25T17:50:19.319Z,6.30
2022-11-25T17:53:07.002Z,6.40
2022-11-25T17:55:55.486Z,6.40
2022-11-25T17:58:42.656Z,6.40
2022-11-25T18:01:30.227Z,6.30
2022-11-25T18:04:22.296Z,6.20
2022-11-25T18:07:10.728Z,6.20
2022-11-25T18:09:57.601Z,6.20
2022-11-25T18:12:48.257Z,6.30
2022-11-25T18:15:35.835Z,6.20
2022-11-25T18:18:25.181Z,6.30
2022-11-25T18:21:13.312Z,6.20
2022-11-25T18:24:00.515Z,6.30
2022-11-25T18:26:50.986Z,6.20
2022-11-25T18:29:39.994Z,6.30
2022-11-25T18:32:27.392Z,6.30
2022-11-25T18:35:19.597Z,6.30
2022-11-25T18:38:07.790Z,6.30
2022-11-25T18:40:55.595Z,6.40
2022-11-25T18:43:42.788Z,6.40
2022-11-25T18:46:36.380Z,6.40
2022-11-25T18:49:24.788Z,6.40
2022-11-25T18:52:12.270Z,6.40
2022-11-25T18:54:59.571Z,6.40
2022-11-25T18:57:49.969Z,6.50
2022-11-25T19:00:37.270Z,6.40
2022-11-25T19:03:26.785Z,6.30
2022-11-25T19:06:15.364Z,6.40
2022-11-25T19:09:03.887Z,6.40
2022-11-25T19:11:53.496Z,6.30
2022-11-25T19:14:42.757Z,6.30
2022-11-25T19:17:30.124Z,6.30
2022-11-25T19:20:21.484Z,6.40
2022-11-25T19:23:18.018Z,6.40
2022-11-25T19:26:11.354Z,6.50
2022-11-25T19:29:02.474Z,6.40
2022-11-25T19:31:50.722Z,6.50
2022-11-25T19:34:43.724Z,6.50
2022-11-25T19:37:32.624Z,6.50
2022-11-25T19:40:22.236Z,6.50
2022-11-25T19:43:09.376Z,6.50
2022-11-25T19:45:58.135Z,6.50
2022-11-25T19:48:45.233Z,6.50
2022-11-25T19:51:35.328Z,6.50
2022-11-25T19:54:23.795Z,6.50
2022-11-25T19:57:22.296Z,6.50
2022-11-25T20:00:11.069Z,6.50
2022-11-25T20:02:59.332Z,6.40
2022-11-25T20:05:48.805Z,6.40
2022-11-25T20:08:36.034Z,6.40
2022-11-25T20:11:24.774Z,6.50
2022-11-25T20:14:12.280Z,6.50
2022-11-25T20:16:59.429Z,6.50
2022-11-25T20:19:46.989Z,6.50
2022-11-25T20:22:38.181Z,6.50
2022-11-25T20:25:25.476Z,6.50
2022-11-25T20:28:18.262Z,6.50
2022-11-25T20:31:05.362Z,6.50
2022-11-25T20:33:52.496Z,6.50
2022-11-25T20:36:42.184Z,6.50
2022-11-25T20:39:29.621Z,6.50
2022-11-25T20:42:16.937Z,6.50
2022-11-25T20:45:07.766Z,6.60
2022-11-25T20:47:55.065Z,6.50
2022-11-25T20:50:42.774Z,6.60
2022-11-25T20:53:32.279Z,6.60
2022-11-25T20:56:21.706Z,6.70
2022-11-25T20:59:20.366Z,6.70
2022-11-25T21:02:09.374Z,6.80
2022-11-25T21:04:56.337Z,6.80
2022-11-25T21:07:44.811Z,6.80
2022-11-25T21:10:34.609Z,6.90
2022-11-25T21:13:24.145Z,6.80
2022-11-25T21:16:11.287Z,6.90
2022-11-25T21:18:59.972Z,6.90
2022-11-25T21:21:49.443Z,6.90
2022-11-25T21:24:41.151Z,6.90
2022-11-25T21:27:29.619Z,6.90
2022-11-25T21:30:20.856Z,6.90
2022-11-25T21:33:11.742Z,7.00
2022-11-25T21:36:01.051Z,7.00
2022-11-25T21:38:50.005Z,7.10
2022-11-25T21:41:37.546Z,7.00
2022-11-25T21:44:29.681Z,7.00
2022-11-25T21:47:19.078Z,7.00
2022-11-25T21:50:14.396Z,7.10
2022-11-25T21:53:02.867Z,7.10
2022-11-25T21:55:50.635Z,7.10
2022-11-25T21:58:39.685Z,7.10
2022-11-25T22:01:27.045Z,7.10
2022-11-25T22:04:16.373Z,7.10
2022-11-25T22:07:03.550Z,7.10
2022-11-25T22:09:52.296Z,7.10
2022-11-25T22:12:41.772Z,7.10
2022-11-25T22:15:28.813Z,7.20
2022-11-25T22:18:24.581Z,7.20
2022-11-25T22:21:13.637Z,7.20
2022-11-25T22:24:00.812Z,7.20
2022-11-25T22:26:57.428Z,7.20
2022-11-25T22:29:45.269Z,7.20
2022-11-25T22:32:33.098Z,7.20
2022-11-25T22:35:21.847Z,7.20
2022-11-25T22:38:14.993Z,7.20
2022-11-25T22:41:04.477Z,7.20
2022-11-25T22:43:53.605Z,7.20
2022-11-25T22:46:40.674Z,7.20
2022-11-25T22:49:35.992Z,7.30
2022-11-25T22:52:26.100Z,7.20
2022-11-25T22:55:19.129Z,7.30
2022-11-25T22:58:06.278Z,7.30
2022-11-25T23:00:57.005Z,7.30
2022-11-25T23:03:45.263Z,7.30
2022-11-25T23:06:32.546Z,7.20
2022-11-25T23:09:20.768Z,7.30
2022-11-25T23:12:11.730Z,7.30
2022-11-25T23:14:59.181Z,7.30
2022-11-25T23:17:51.368Z,7.30
2022-11-25T23:20:40.688Z,7.30
2022-11-25T23:23:29.458Z,7.30
2022-11-25T23:26:16.665Z,7.30
2022-11-25T23:29:03.981Z,7.30
2022-11-25T23:31:51.337Z,7.30
2022-11-25T23:34:40.270Z,7.30
2022-11-25T23:37:27.717Z,7.30
2022-11-25T23:40:20.375Z,7.30
2022-11-25T23:43:12.964Z,7.30
2022-11-25T23:46:00.388Z,7.30
2022-11-25T23:48:53.076Z,7.40
2022-11-25T23:51:41.437Z,7.40
2022-11-25T23:54:32.159Z,7.30
2022-11-25T23:57:22.058Z,7.30
